sensor_id;sensor_type;location;lat;lon;timestamp;P1;durP1;ratioP1;P2;durP2;ratioP2
15655;SDS011;7928;43.614;1.456;2022-07-22T00:02:05;8.98;;;5.38;;
15655;SDS011;7928;43.614;1.456;2022-07-22T00:04:32;11.52;;;5.53;;
15655;SDS011;7928;43.614;1.456;2022-07-22T00:06:59;6.80;;;5.60;;
15655;SDS011;7928;43.614;1.456;2022-07-22T00:09:27;5.95;;;5.00;;
15655;SDS011;7928;43.614;1.456;2022-07-22T00:11:54;7.15;;;5.38;;
15655;SDS011;7928;43.614;1.456;2022-07-22T00:14:21;7.68;;;4.95;;
15655;SDS011;7928;43.614;1.456;2022-07-22T00:16:50;7.32;;;5.05;;
15655;SDS011;7928;43.614;1.456;2022-07-22T00:19:17;9.15;;;5.07;;
15655;SDS011;7928;43.614;1.456;2022-07-22T00:21:44;8.40;;;5.18;;
15655;SDS011;7928;43.614;1.456;2022-07-22T00:24:11;7.15;;;4.90;;
15655;SDS011;7928;43.614;1.456;2022-07-22T00:26:38;8.15;;;5.03;;
15655;SDS011;7928;43.614;1.456;2022-07-22T00:29:05;7.18;;;5.88;;
15655;SDS011;7928;43.614;1.456;2022-07-22T00:31:32;6.28;;;5.65;;
15655;SDS011;7928;43.614;1.456;2022-07-22T00:34:01;6.22;;;5.57;;
15655;SDS011;7928;43.614;1.456;2022-07-22T00:36:28;8.52;;;5.13;;
15655;SDS011;7928;43.614;1.456;2022-07-22T00:38:55;10.43;;;5.18;;
15655;SDS011;7928;43.614;1.456;2022-07-22T00:41:23;7.28;;;5.55;;
15655;SDS011;7928;43.614;1.456;2022-07-22T00:43:51;9.05;;;5.97;;
15655;SDS011;7928;43.614;1.456;2022-07-22T00:46:19;8.35;;;5.35;;
15655;SDS011;7928;43.614;1.456;2022-07-22T00:48:46;8.48;;;5.55;;
15655;SDS011;7928;43.614;1.456;2022-07-22T00:51:15;8.80;;;5.43;;
15655;SDS011;7928;43.614;1.456;2022-07-22T00:53:43;6.15;;;4.90;;
15655;SDS011;7928;43.614;1.456;2022-07-22T00:56:11;5.63;;;5.03;;
15655;SDS011;7928;43.614;1.456;2022-07-22T00:58:38;7.07;;;5.18;;
15655;SDS011;7928;43.614;1.456;2022-07-22T01:01:05;6.47;;;5.72;;
15655;SDS011;7928;43.614;1.456;2022-07-22T01:03:32;7.97;;;6.10;;
15655;SDS011;7928;43.614;1.456;2022-07-22T01:05:59;7.07;;;5.53;;
15655;SDS011;7928;43.614;1.456;2022-07-22T01:08:28;6.28;;;5.57;;
15655;SDS011;7928;43.614;1.456;2022-07-22T01:11:05;9.40;;;6.03;;
15655;SDS011;7928;43.614;1.456;2022-07-22T01:13:33;6.40;;;5.78;;
15655;SDS011;7928;43.614;1.456;2022-07-22T01:16:00;8.48;;;4.95;;
15655;SDS011;7928;43.614;1.456;2022-07-22T01:18:27;5.68;;;5.05;;
15655;SDS011;7928;43.614;1.456;2022-07-22T01:20:56;11.07;;;5.82;;
15655;SDS011;7928;43.614;1.456;2022-07-22T01:23:23;6.85;;;6.00;;
15655;SDS011;7928;43.614;1.456;2022-07-22T01:25:50;9.93;;;5.43;;
15655;SDS011;7928;43.614;1.456;2022-07-22T01:28:17;6.88;;;5.30;;
15655;SDS011;7928;43.614;1.456;2022-07-22T01:30:44;6.65;;;5.10;;
15655;SDS011;7928;43.614;1.456;2022-07-22T01:33:11;11.25;;;5.70;;
15655;SDS011;7928;43.614;1.456;2022-07-22T01:35:38;7.43;;;5.40;;
15655;SDS011;7928;43.614;1.456;2022-07-22T01:38:07;9.18;;;5.75;;
15655;SDS011;7928;43.614;1.456;2022-07-22T01:40:34;5.63;;;5.03;;
15655;SDS011;7928;43.614;1.456;2022-07-22T01:43:01;6.82;;;5.18;;
15655;SDS011;7928;43.614;1.456;2022-07-22T01:45:28;6.65;;;5.47;;
15655;SDS011;7928;43.614;1.456;2022-07-22T01:47:56;8.75;;;5.70;;
15655;SDS011;7928;43.614;1.456;2022-07-22T01:50:23;7.35;;;5.18;;
15655;SDS011;7928;43.614;1.456;2022-07-22T01:52:50;6.93;;;5.45;;
15655;SDS011;7928;43.614;1.456;2022-07-22T01:55:19;6.68;;;5.47;;
15655;SDS011;7928;43.614;1.456;2022-07-22T01:57:46;5.63;;;4.93;;
15655;SDS011;7928;43.614;1.456;2022-07-22T02:00:14;6.95;;;4.97;;
15655;SDS011;7928;43.614;1.456;2022-07-22T02:02:41;7.40;;;5.50;;
15655;SDS011;7928;43.614;1.456;2022-07-22T02:05:09;7.00;;;4.78;;
15655;SDS011;7928;43.614;1.456;2022-07-22T02:07:36;7.28;;;4.82;;
15655;SDS011;7928;43.614;1.456;2022-07-22T02:10:03;9.43;;;5.38;;
15655;SDS011;7928;43.614;1.456;2022-07-22T02:12:32;6.18;;;4.95;;
15655;SDS011;7928;43.614;1.456;2022-07-22T02:15:00;5.85;;;4.72;;
15655;SDS011;7928;43.614;1.456;2022-07-22T02:17:27;6.50;;;5.13;;
15655;SDS011;7928;43.614;1.456;2022-07-22T02:19:54;4.97;;;4.55;;
15655;SDS011;7928;43.614;1.456;2022-07-22T02:22:21;6.10;;;4.65;;
15655;SDS011;7928;43.614;1.456;2022-07-22T02:24:48;7.50;;;4.75;;
15655;SDS011;7928;43.614;1.456;2022-07-22T02:27:15;7.15;;;4.90;;
15655;SDS011;7928;43.614;1.456;2022-07-22T02:29:43;8.25;;;4.90;;
15655;SDS011;7928;43.614;1.456;2022-07-22T02:32:10;5.22;;;4.45;;
15655;SDS011;7928;43.614;1.456;2022-07-22T02:34:37;7.60;;;4.30;;
15655;SDS011;7928;43.614;1.456;2022-07-22T02:37:04;6.82;;;5.20;;
15655;SDS011;7928;43.614;1.456;2022-07-22T02:39:31;8.88;;;4.30;;
15655;SDS011;7928;43.614;1.456;2022-07-22T02:41:58;7.88;;;4.70;;
15655;SDS011;7928;43.614;1.456;2022-07-22T02:44:25;5.95;;;4.82;;
15655;SDS011;7928;43.614;1.456;2022-07-22T02:46:53;5.82;;;4.28;;
15655;SDS011;7928;43.614;1.456;2022-07-22T02:49:21;8.10;;;4.60;;
15655;SDS011;7928;43.614;1.456;2022-07-22T02:51:48;4.55;;;4.15;;
15655;SDS011;7928;43.614;1.456;2022-07-22T02:54:15;5.35;;;4.30;;
15655;SDS011;7928;43.614;1.456;2022-07-22T02:56:42;8.90;;;4.60;;
15655;SDS011;7928;43.614;1.456;2022-07-22T02:59:09;6.47;;;4.45;;
15655;SDS011;7928;43.614;1.456;2022-07-22T03:01:36;5.55;;;4.63;;
15655;SDS011;7928;43.614;1.456;2022-07-22T03:04:04;4.93;;;4.47;;
15655;SDS011;7928;43.614;1.456;2022-07-22T03:06:31;5.87;;;4.70;;
15655;SDS011;7928;43.614;1.456;2022-07-22T03:08:58;6.78;;;5.10;;
15655;SDS011;7928;43.614;1.456;2022-07-22T03:11:25;6.43;;;4.70;;
15655;SDS011;7928;43.614;1.456;2022-07-22T03:13:52;5.87;;;5.23;;
15655;SDS011;7928;43.614;1.456;2022-07-22T03:16:19;8.18;;;4.72;;
15655;SDS011;7928;43.614;1.456;2022-07-22T03:18:46;7.03;;;4.97;;
15655;SDS011;7928;43.614;1.456;2022-07-22T03:21:15;5.07;;;4.55;;
15655;SDS011;7928;43.614;1.456;2022-07-22T03:23:42;5.93;;;4.43;;
15655;SDS011;7928;43.614;1.456;2022-07-22T03:26:09;5.43;;;4.93;;
15655;SDS011;7928;43.614;1.456;2022-07-22T03:28:36;6.30;;;5.67;;
15655;SDS011;7928;43.614;1.456;2022-07-22T03:31:03;8.37;;;5.93;;
15655;SDS011;7928;43.614;1.456;2022-07-22T03:33:30;6.63;;;5.20;;
15655;SDS011;7928;43.614;1.456;2022-07-22T03:35:57;8.37;;;5.60;;
15655;SDS011;7928;43.614;1.456;2022-07-22T03:38:25;6.13;;;5.53;;
15655;SDS011;7928;43.614;1.456;2022-07-22T03:40:52;7.60;;;6.07;;
15655;SDS011;7928;43.614;1.456;2022-07-22T03:43:20;6.53;;;5.80;;
15655;SDS011;7928;43.614;1.456;2022-07-22T03:45:48;7.63;;;6.65;;
15655;SDS011;7928;43.614;1.456;2022-07-22T03:48:15;8.03;;;6.13;;
15655;SDS011;7928;43.614;1.456;2022-07-22T03:50:42;7.30;;;5.90;;
15655;SDS011;7928;43.614;1.456;2022-07-22T03:53:09;7.67;;;6.43;;
15655;SDS011;7928;43.614;1.456;2022-07-22T03:55:37;8.37;;;5.67;;
15655;SDS011;7928;43.614;1.456;2022-07-22T03:58:04;7.63;;;6.15;;
15655;SDS011;7928;43.614;1.456;2022-07-22T04:00:31;7.88;;;6.05;;
15655;SDS011;7928;43.614;1.456;2022-07-22T04:02:58;11.40;;;6.18;;
15655;SDS011;7928;43.614;1.456;2022-07-22T04:05:25;9.93;;;6.43;;
15655;SDS011;7928;43.614;1.456;2022-07-22T04:07:53;8.57;;;6.00;;
15655;SDS011;7928;43.614;1.456;2022-07-22T04:10:20;9.13;;;6.50;;
15655;SDS011;7928;43.614;1.456;2022-07-22T04:12:49;12.37;;;8.10;;
15655;SDS011;7928;43.614;1.456;2022-07-22T04:15:16;8.70;;;7.73;;
15655;SDS011;7928;43.614;1.456;2022-07-22T04:17:43;8.00;;;7.20;;
15655;SDS011;7928;43.614;1.456;2022-07-22T04:20:10;9.70;;;7.07;;
15655;SDS011;7928;43.614;1.456;2022-07-22T04:22:37;8.68;;;6.18;;
15655;SDS011;7928;43.614;1.456;2022-07-22T04:25:05;7.43;;;6.40;;
15655;SDS011;7928;43.614;1.456;2022-07-22T04:27:32;6.80;;;5.63;;
15655;SDS011;7928;43.614;1.456;2022-07-22T04:30:00;10.33;;;6.60;;
15655;SDS011;7928;43.614;1.456;2022-07-22T04:32:27;10.13;;;5.90;;
15655;SDS011;7928;43.614;1.456;2022-07-22T04:34:54;7.13;;;5.23;;
15655;SDS011;7928;43.614;1.456;2022-07-22T04:37:22;8.80;;;5.67;;
15655;SDS011;7928;43.614;1.456;2022-07-22T04:39:48;7.97;;;5.17;;
15655;SDS011;7928;43.614;1.456;2022-07-22T04:42:16;5.87;;;5.27;;
15655;SDS011;7928;43.614;1.456;2022-07-22T04:44:43;5.70;;;5.10;;
15655;SDS011;7928;43.614;1.456;2022-07-22T04:47:12;7.93;;;5.50;;
15655;SDS011;7928;43.614;1.456;2022-07-22T04:49:39;5.97;;;5.07;;
15655;SDS011;7928;43.614;1.456;2022-07-22T04:52:06;9.57;;;5.63;;
15655;SDS011;7928;43.614;1.456;2022-07-22T04:54:34;7.90;;;5.27;;
15655;SDS011;7928;43.614;1.456;2022-07-22T04:57:01;8.27;;;5.60;;
15655;SDS011;7928;43.614;1.456;2022-07-22T04:59:28;8.40;;;5.17;;
15655;SDS011;7928;43.614;1.456;2022-07-22T05:01:55;5.97;;;4.90;;
15655;SDS011;7928;43.614;1.456;2022-07-22T05:04:24;7.33;;;4.97;;
15655;SDS011;7928;43.614;1.456;2022-07-22T05:06:51;5.83;;;5.20;;
15655;SDS011;7928;43.614;1.456;2022-07-22T05:09:18;8.97;;;5.00;;
15655;SDS011;7928;43.614;1.456;2022-07-22T05:11:45;5.93;;;4.77;;
15655;SDS011;7928;43.614;1.456;2022-07-22T05:14:12;8.47;;;4.93;;
15655;SDS011;7928;43.614;1.456;2022-07-22T05:16:39;5.57;;;4.97;;
15655;SDS011;7928;43.614;1.456;2022-07-22T05:19:06;5.90;;;4.97;;
15655;SDS011;7928;43.614;1.456;2022-07-22T05:21:34;8.20;;;5.20;;
15655;SDS011;7928;43.614;1.456;2022-07-22T05:24:01;5.47;;;4.83;;
15655;SDS011;7928;43.614;1.456;2022-07-22T05:26:29;6.93;;;5.03;;
15655;SDS011;7928;43.614;1.456;2022-07-22T05:28:57;10.53;;;5.63;;
15655;SDS011;7928;43.614;1.456;2022-07-22T05:31:25;7.78;;;5.38;;
15655;SDS011;7928;43.614;1.456;2022-07-22T05:33:52;7.57;;;5.00;;
15655;SDS011;7928;43.614;1.456;2022-07-22T05:36:19;7.73;;;5.63;;
15655;SDS011;7928;43.614;1.456;2022-07-22T05:38:47;9.23;;;5.37;;
15655;SDS011;7928;43.614;1.456;2022-07-22T05:41:14;7.35;;;5.00;;
15655;SDS011;7928;43.614;1.456;2022-07-22T05:43:42;6.25;;;5.25;;
15655;SDS011;7928;43.614;1.456;2022-07-22T05:46:09;8.77;;;5.93;;
15655;SDS011;7928;43.614;1.456;2022-07-22T05:48:36;7.57;;;5.63;;
15655;SDS011;7928;43.614;1.456;2022-07-22T05:51:03;10.80;;;5.50;;
15655;SDS011;7928;43.614;1.456;2022-07-22T05:53:36;9.80;;;5.40;;
15655;SDS011;7928;43.614;1.456;2022-07-22T05:56:05;8.33;;;5.57;;
15655;SDS011;7928;43.614;1.456;2022-07-22T05:58:32;7.30;;;4.77;;
15655;SDS011;7928;43.614;1.456;2022-07-22T06:00:59;10.97;;;6.20;;
15655;SDS011;7928;43.614;1.456;2022-07-22T06:03:26;8.80;;;5.13;;
15655;SDS011;7928;43.614;1.456;2022-07-22T06:05:53;7.77;;;5.23;;
15655;SDS011;7928;43.614;1.456;2022-07-22T06:08:20;10.17;;;5.20;;
15655;SDS011;7928;43.614;1.456;2022-07-22T06:10:47;10.40;;;5.63;;
15655;SDS011;7928;43.614;1.456;2022-07-22T06:13:16;8.23;;;5.70;;
15655;SDS011;7928;43.614;1.456;2022-07-22T06:15:43;6.50;;;5.20;;
15655;SDS011;7928;43.614;1.456;2022-07-22T06:18:10;10.73;;;6.17;;
15655;SDS011;7928;43.614;1.456;2022-07-22T06:20:37;9.80;;;6.07;;
15655;SDS011;7928;43.614;1.456;2022-07-22T06:23:04;10.97;;;5.53;;
15655;SDS011;7928;43.614;1.456;2022-07-22T06:25:31;10.63;;;5.63;;
15655;SDS011;7928;43.614;1.456;2022-07-22T06:27:58;10.97;;;5.90;;
15655;SDS011;7928;43.614;1.456;2022-07-22T06:30:26;6.80;;;5.87;;
15655;SDS011;7928;43.614;1.456;2022-07-22T06:32:54;9.40;;;6.10;;
15655;SDS011;7928;43.614;1.456;2022-07-22T06:35:21;12.13;;;6.30;;
15655;SDS011;7928;43.614;1.456;2022-07-22T06:37:49;16.97;;;7.03;;
15655;SDS011;7928;43.614;1.456;2022-07-22T06:40:17;10.37;;;6.00;;
15655;SDS011;7928;43.614;1.456;2022-07-22T06:42:44;8.20;;;5.80;;
15655;SDS011;7928;43.614;1.456;2022-07-22T06:45:11;14.00;;;6.47;;
15655;SDS011;7928;43.614;1.456;2022-07-22T06:47:39;15.73;;;7.10;;
15655;SDS011;7928;43.614;1.456;2022-07-22T06:50:07;7.90;;;5.73;;
15655;SDS011;7928;43.614;1.456;2022-07-22T06:52:37;11.50;;;6.30;;
15655;SDS011;7928;43.614;1.456;2022-07-22T06:55:06;12.80;;;6.83;;
15655;SDS011;7928;43.614;1.456;2022-07-22T06:57:34;13.53;;;6.07;;
15655;SDS011;7928;43.614;1.456;2022-07-22T07:00:01;9.03;;;5.77;;
15655;SDS011;7928;43.614;1.456;2022-07-22T07:02:29;11.03;;;5.83;;
15655;SDS011;7928;43.614;1.456;2022-07-22T07:04:58;11.53;;;6.13;;
15655;SDS011;7928;43.614;1.456;2022-07-22T07:07:25;11.73;;;6.30;;
15655;SDS011;7928;43.614;1.456;2022-07-22T07:09:52;12.57;;;7.40;;
15655;SDS011;7928;43.614;1.456;2022-07-22T07:12:19;12.07;;;6.80;;
15655;SDS011;7928;43.614;1.456;2022-07-22T07:14:46;9.83;;;6.10;;
15655;SDS011;7928;43.614;1.456;2022-07-22T07:17:13;14.40;;;7.47;;
15655;SDS011;7928;43.614;1.456;2022-07-22T07:19:40;11.97;;;6.90;;
15655;SDS011;7928;43.614;1.456;2022-07-22T07:22:09;13.90;;;6.60;;
15655;SDS011;7928;43.614;1.456;2022-07-22T07:24:36;15.60;;;6.80;;
15655;SDS011;7928;43.614;1.456;2022-07-22T07:27:03;13.60;;;8.33;;
15655;SDS011;7928;43.614;1.456;2022-07-22T07:29:30;15.30;;;7.30;;
15655;SDS011;7928;43.614;1.456;2022-07-22T07:31:57;12.03;;;6.90;;
15655;SDS011;7928;43.614;1.456;2022-07-22T07:34:24;10.80;;;8.00;;
15655;SDS011;7928;43.614;1.456;2022-07-22T07:36:51;13.77;;;9.50;;
15655;SDS011;7928;43.614;1.456;2022-07-22T07:39:19;11.47;;;7.17;;
15655;SDS011;7928;43.614;1.456;2022-07-22T07:41:46;15.73;;;6.37;;
15655;SDS011;7928;43.614;1.456;2022-07-22T07:44:13;11.57;;;6.50;;
15655;SDS011;7928;43.614;1.456;2022-07-22T07:46:40;11.30;;;5.90;;
15655;SDS011;7928;43.614;1.456;2022-07-22T07:49:07;9.50;;;6.70;;
15655;SDS011;7928;43.614;1.456;2022-07-22T07:51:35;9.87;;;6.33;;
15655;SDS011;7928;43.614;1.456;2022-07-22T07:54:02;12.80;;;6.73;;
15655;SDS011;7928;43.614;1.456;2022-07-22T07:56:31;11.57;;;6.47;;
15655;SDS011;7928;43.614;1.456;2022-07-22T07:58:58;10.73;;;6.83;;
15655;SDS011;7928;43.614;1.456;2022-07-22T08:01:25;11.67;;;6.03;;
15655;SDS011;7928;43.614;1.456;2022-07-22T08:03:52;8.73;;;5.53;;
15655;SDS011;7928;43.614;1.456;2022-07-22T08:06:19;10.87;;;6.57;;
15655;SDS011;7928;43.614;1.456;2022-07-22T08:08:46;11.60;;;6.40;;
15655;SDS011;7928;43.614;1.456;2022-07-22T08:11:13;11.40;;;5.67;;
15655;SDS011;7928;43.614;1.456;2022-07-22T08:13:42;9.57;;;5.87;;
15655;SDS011;7928;43.614;1.456;2022-07-22T08:16:09;9.93;;;6.63;;
15655;SDS011;7928;43.614;1.456;2022-07-22T08:18:36;12.43;;;6.50;;
15655;SDS011;7928;43.614;1.456;2022-07-22T08:21:03;10.70;;;5.77;;
15655;SDS011;7928;43.614;1.456;2022-07-22T08:23:30;10.87;;;6.50;;
15655;SDS011;7928;43.614;1.456;2022-07-22T08:25:57;11.60;;;6.77;;
15655;SDS011;7928;43.614;1.456;2022-07-22T08:28:24;8.13;;;6.23;;
15655;SDS011;7928;43.614;1.456;2022-07-22T08:30:52;9.13;;;6.70;;
15655;SDS011;7928;43.614;1.456;2022-07-22T08:33:20;10.67;;;6.70;;
15655;SDS011;7928;43.614;1.456;2022-07-22T08:35:47;9.33;;;6.20;;
15655;SDS011;7928;43.614;1.456;2022-07-22T08:38:14;8.47;;;5.83;;
15655;SDS011;7928;43.614;1.456;2022-07-22T08:40:41;11.83;;;6.77;;
15655;SDS011;7928;43.614;1.456;2022-07-22T08:43:08;11.43;;;6.53;;
15655;SDS011;7928;43.614;1.456;2022-07-22T08:45:35;12.73;;;6.57;;
15655;SDS011;7928;43.614;1.456;2022-07-22T08:48:04;9.47;;;6.87;;
15655;SDS011;7928;43.614;1.456;2022-07-22T08:50:31;10.20;;;6.60;;
15655;SDS011;7928;43.614;1.456;2022-07-22T08:52:58;10.45;;;6.72;;
15655;SDS011;7928;43.614;1.456;2022-07-22T08:55:25;9.20;;;6.27;;
15655;SDS011;7928;43.614;1.456;2022-07-22T08:57:52;8.90;;;6.40;;
15655;SDS011;7928;43.614;1.456;2022-07-22T09:00:20;11.30;;;6.53;;
15655;SDS011;7928;43.614;1.456;2022-07-22T09:02:48;10.47;;;6.63;;
15655;SDS011;7928;43.614;1.456;2022-07-22T09:05:17;9.07;;;6.22;;
15655;SDS011;7928;43.614;1.456;2022-07-22T09:07:45;8.07;;;6.57;;
15655;SDS011;7928;43.614;1.456;2022-07-22T09:10:13;9.20;;;6.10;;
15655;SDS011;7928;43.614;1.456;2022-07-22T09:12:52;9.90;;;6.15;;
15655;SDS011;7928;43.614;1.456;2022-07-22T09:15:24;13.25;;;7.20;;
15655;SDS011;7928;43.614;1.456;2022-07-22T09:17:53;13.90;;;6.70;;
15655;SDS011;7928;43.614;1.456;2022-07-22T09:20:22;8.90;;;6.40;;
15655;SDS011;7928;43.614;1.456;2022-07-22T09:22:49;9.38;;;6.43;;
15655;SDS011;7928;43.614;1.456;2022-07-22T09:25:19;8.32;;;6.13;;
15655;SDS011;7928;43.614;1.456;2022-07-22T09:27:53;7.88;;;5.72;;
15655;SDS011;7928;43.614;1.456;2022-07-22T09:30:21;11.57;;;6.88;;
15655;SDS011;7928;43.614;1.456;2022-07-22T09:32:50;8.73;;;5.65;;
15655;SDS011;7928;43.614;1.456;2022-07-22T09:35:19;8.13;;;5.95;;
15655;SDS011;7928;43.614;1.456;2022-07-22T09:37:48;10.05;;;6.07;;
15655;SDS011;7928;43.614;1.456;2022-07-22T09:40:18;10.18;;;6.05;;
15655;SDS011;7928;43.614;1.456;2022-07-22T09:42:47;10.85;;;5.93;;
15655;SDS011;7928;43.614;1.456;2022-07-22T09:45:16;7.35;;;5.47;;
15655;SDS011;7928;43.614;1.456;2022-07-22T09:47:45;6.68;;;5.72;;
15655;SDS011;7928;43.614;1.456;2022-07-22T09:50:14;7.57;;;5.70;;
15655;SDS011;7928;43.614;1.456;2022-07-22T09:52:43;9.32;;;6.57;;
15655;SDS011;7928;43.614;1.456;2022-07-22T09:55:11;10.10;;;6.85;;
15655;SDS011;7928;43.614;1.456;2022-07-22T09:57:40;7.75;;;6.15;;
15655;SDS011;7928;43.614;1.456;2022-07-22T10:00:07;11.48;;;6.20;;
15655;SDS011;7928;43.614;1.456;2022-07-22T10:02:36;12.15;;;6.07;;
15655;SDS011;7928;43.614;1.456;2022-07-22T10:05:08;11.23;;;6.07;;
15655;SDS011;7928;43.614;1.456;2022-07-22T10:07:37;11.32;;;6.05;;
15655;SDS011;7928;43.614;1.456;2022-07-22T10:10:07;7.03;;;5.90;;
15655;SDS011;7928;43.614;1.456;2022-07-22T10:12:36;10.68;;;5.75;;
15655;SDS011;7928;43.614;1.456;2022-07-22T10:15:04;9.25;;;5.20;;
15655;SDS011;7928;43.614;1.456;2022-07-22T10:17:33;7.80;;;5.47;;
15655;SDS011;7928;43.614;1.456;2022-07-22T10:20:01;7.20;;;5.93;;
15655;SDS011;7928;43.614;1.456;2022-07-22T10:22:49;14.45;;;6.57;;
15655;SDS011;7928;43.614;1.456;2022-07-22T10:25:19;11.25;;;5.97;;
15655;SDS011;7928;43.614;1.456;2022-07-22T10:27:49;8.15;;;6.22;;
15655;SDS011;7928;43.614;1.456;2022-07-22T10:30:18;7.32;;;5.95;;
15655;SDS011;7928;43.614;1.456;2022-07-22T10:32:49;10.73;;;6.55;;
15655;SDS011;7928;43.614;1.456;2022-07-22T10:35:29;7.30;;;6.03;;
15655;SDS011;7928;43.614;1.456;2022-07-22T10:37:58;10.00;;;5.95;;
15655;SDS011;7928;43.614;1.456;2022-07-22T10:40:28;7.13;;;5.90;;
15655;SDS011;7928;43.614;1.456;2022-07-22T10:43:03;6.97;;;5.75;;
15655;SDS011;7928;43.614;1.456;2022-07-22T10:45:32;10.93;;;5.43;;
15655;SDS011;7928;43.614;1.456;2022-07-22T10:48:00;7.95;;;5.68;;
15655;SDS011;7928;43.614;1.456;2022-07-22T10:50:43;7.38;;;5.45;;
15655;SDS011;7928;43.614;1.456;2022-07-22T10:53:12;7.88;;;5.80;;
15655;SDS011;7928;43.614;1.456;2022-07-22T10:58:42;8.10;;;5.65;;
15655;SDS011;7928;43.614;1.456;2022-07-22T11:01:11;10.05;;;5.53;;
15655;SDS011;7928;43.614;1.456;2022-07-22T11:03:40;10.40;;;6.05;;
15655;SDS011;7928;43.614;1.456;2022-07-22T11:06:12;8.98;;;6.10;;
15655;SDS011;7928;43.614;1.456;2022-07-22T11:08:41;9.02;;;5.88;;
15655;SDS011;7928;43.614;1.456;2022-07-22T11:11:11;7.45;;;5.95;;
15655;SDS011;7928;43.614;1.456;2022-07-22T11:13:38;11.20;;;5.93;;
15655;SDS011;7928;43.614;1.456;2022-07-22T11:16:13;12.40;;;5.95;;
15655;SDS011;7928;43.614;1.456;2022-07-22T11:18:48;11.35;;;5.88;;
15655;SDS011;7928;43.614;1.456;2022-07-22T11:21:17;9.43;;;6.10;;
15655;SDS011;7928;43.614;1.456;2022-07-22T11:23:46;7.18;;;5.57;;
15655;SDS011;7928;43.614;1.456;2022-07-22T11:26:17;12.63;;;6.30;;
15655;SDS011;7928;43.614;1.456;2022-07-22T11:28:46;11.55;;;6.78;;
15655;SDS011;7928;43.614;1.456;2022-07-22T11:31:16;8.85;;;5.63;;
15655;SDS011;7928;43.614;1.456;2022-07-22T11:33:44;12.13;;;6.15;;
15655;SDS011;7928;43.614;1.456;2022-07-22T11:36:11;13.43;;;5.93;;
15655;SDS011;7928;43.614;1.456;2022-07-22T11:38:42;9.55;;;5.47;;
15655;SDS011;7928;43.614;1.456;2022-07-22T11:41:10;6.78;;;5.65;;
15655;SDS011;7928;43.614;1.456;2022-07-22T11:43:42;8.07;;;6.18;;
15655;SDS011;7928;43.614;1.456;2022-07-22T11:46:11;10.27;;;6.05;;
15655;SDS011;7928;43.614;1.456;2022-07-22T11:48:39;9.63;;;5.72;;
15655;SDS011;7928;43.614;1.456;2022-07-22T11:51:07;10.40;;;5.63;;
15655;SDS011;7928;43.614;1.456;2022-07-22T11:53:35;8.30;;;5.45;;
15655;SDS011;7928;43.614;1.456;2022-07-22T11:56:04;9.23;;;5.65;;
15655;SDS011;7928;43.614;1.456;2022-07-22T11:58:35;6.90;;;5.25;;
15655;SDS011;7928;43.614;1.456;2022-07-22T12:01:06;8.40;;;4.93;;
15655;SDS011;7928;43.614;1.456;2022-07-22T12:03:35;8.73;;;5.45;;
15655;SDS011;7928;43.614;1.456;2022-07-22T12:06:03;9.27;;;5.60;;
15655;SDS011;7928;43.614;1.456;2022-07-22T12:08:32;6.05;;;5.00;;
15655;SDS011;7928;43.614;1.456;2022-07-22T12:11:01;9.68;;;5.25;;
15655;SDS011;7928;43.614;1.456;2022-07-22T12:13:28;7.03;;;5.25;;
15655;SDS011;7928;43.614;1.456;2022-07-22T12:15:56;7.50;;;5.07;;
15655;SDS011;7928;43.614;1.456;2022-07-22T12:18:26;9.85;;;4.80;;
15655;SDS011;7928;43.614;1.456;2022-07-22T12:20:54;7.80;;;4.93;;
15655;SDS011;7928;43.614;1.456;2022-07-22T12:23:22;7.68;;;4.75;;
15655;SDS011;7928;43.614;1.456;2022-07-22T12:25:53;9.65;;;4.80;;
15655;SDS011;7928;43.614;1.456;2022-07-22T12:28:22;7.95;;;5.07;;
15655;SDS011;7928;43.614;1.456;2022-07-22T12:30:50;6.50;;;4.82;;
15655;SDS011;7928;43.614;1.456;2022-07-22T12:33:19;6.55;;;4.97;;
15655;SDS011;7928;43.614;1.456;2022-07-22T12:35:59;7.03;;;4.50;;
15655;SDS011;7928;43.614;1.456;2022-07-22T12:38:27;8.32;;;4.72;;
15655;SDS011;7928;43.614;1.456;2022-07-22T12:40:55;5.53;;;5.00;;
15655;SDS011;7928;43.614;1.456;2022-07-22T12:43:25;8.85;;;4.45;;
15655;SDS011;7928;43.614;1.456;2022-07-22T12:45:52;5.80;;;4.85;;
15655;SDS011;7928;43.614;1.456;2022-07-22T12:48:19;6.53;;;4.65;;
15655;SDS011;7928;43.614;1.456;2022-07-22T12:50:55;5.70;;;5.13;;
15655;SDS011;7928;43.614;1.456;2022-07-22T12:53:25;9.52;;;5.18;;
15655;SDS011;7928;43.614;1.456;2022-07-22T12:55:55;7.07;;;4.60;;
15655;SDS011;7928;43.614;1.456;2022-07-22T12:58:25;9.80;;;4.35;;
15655;SDS011;7928;43.614;1.456;2022-07-22T13:00:54;8.57;;;5.15;;
15655;SDS011;7928;43.614;1.456;2022-07-22T13:03:22;7.55;;;5.25;;
15655;SDS011;7928;43.614;1.456;2022-07-22T13:05:51;7.95;;;5.05;;
15655;SDS011;7928;43.614;1.456;2022-07-22T13:08:19;6.68;;;5.00;;
15655;SDS011;7928;43.614;1.456;2022-07-22T13:10:48;6.95;;;4.70;;
15655;SDS011;7928;43.614;1.456;2022-07-22T13:13:15;6.95;;;4.20;;
15655;SDS011;7928;43.614;1.456;2022-07-22T13:15:42;6.50;;;4.65;;
15655;SDS011;7928;43.614;1.456;2022-07-22T13:18:10;8.63;;;4.97;;
15655;SDS011;7928;43.614;1.456;2022-07-22T13:20:38;7.63;;;4.80;;
15655;SDS011;7928;43.614;1.456;2022-07-22T13:23:05;8.65;;;5.82;;
15655;SDS011;7928;43.614;1.456;2022-07-22T13:25:32;6.10;;;4.82;;
15655;SDS011;7928;43.614;1.456;2022-07-22T13:28:01;5.43;;;4.60;;
15655;SDS011;7928;43.614;1.456;2022-07-22T13:30:28;5.90;;;5.10;;
15655;SDS011;7928;43.614;1.456;2022-07-22T13:32:55;8.05;;;5.30;;
15655;SDS011;7928;43.614;1.456;2022-07-22T13:35:22;9.10;;;5.30;;
15655;SDS011;7928;43.614;1.456;2022-07-22T13:37:49;6.57;;;5.25;;
15655;SDS011;7928;43.614;1.456;2022-07-22T13:40:16;9.73;;;5.13;;
15655;SDS011;7928;43.614;1.456;2022-07-22T13:42:43;6.85;;;5.25;;
15655;SDS011;7928;43.614;1.456;2022-07-22T13:45:12;9.40;;;5.00;;
15655;SDS011;7928;43.614;1.456;2022-07-22T13:47:39;6.07;;;5.47;;
15655;SDS011;7928;43.614;1.456;2022-07-22T13:50:07;7.68;;;4.60;;
15655;SDS011;7928;43.614;1.456;2022-07-22T13:52:35;6.35;;;4.72;;
15655;SDS011;7928;43.614;1.456;2022-07-22T13:55:02;6.40;;;5.05;;
15655;SDS011;7928;43.614;1.456;2022-07-22T13:57:30;8.65;;;5.68;;
15655;SDS011;7928;43.614;1.456;2022-07-22T13:59:57;6.22;;;4.82;;
15655;SDS011;7928;43.614;1.456;2022-07-22T14:02:26;6.35;;;4.82;;
15655;SDS011;7928;43.614;1.456;2022-07-22T14:04:53;13.63;;;5.03;;
15655;SDS011;7928;43.614;1.456;2022-07-22T14:07:20;9.77;;;5.65;;
15655;SDS011;7928;43.614;1.456;2022-07-22T14:09:47;7.65;;;5.45;;
15655;SDS011;7928;43.614;1.456;2022-07-22T14:12:14;5.50;;;5.00;;
15655;SDS011;7928;43.614;1.456;2022-07-22T14:14:41;8.70;;;5.82;;
15655;SDS011;7928;43.614;1.456;2022-07-22T14:17:08;5.85;;;5.15;;
15655;SDS011;7928;43.614;1.456;2022-07-22T14:19:37;8.35;;;6.18;;
15655;SDS011;7928;43.614;1.456;2022-07-22T14:22:04;6.45;;;4.90;;
15655;SDS011;7928;43.614;1.456;2022-07-22T14:24:31;8.40;;;5.55;;
15655;SDS011;7928;43.614;1.456;2022-07-22T14:26:58;7.15;;;5.47;;
15655;SDS011;7928;43.614;1.456;2022-07-22T14:29:25;7.45;;;5.47;;
15655;SDS011;7928;43.614;1.456;2022-07-22T14:31:52;10.15;;;5.57;;
15655;SDS011;7928;43.614;1.456;2022-07-22T14:34:19;7.03;;;5.30;;
15655;SDS011;7928;43.614;1.456;2022-07-22T14:36:48;7.72;;;5.38;;
15655;SDS011;7928;43.614;1.456;2022-07-22T14:39:15;9.85;;;5.38;;
15655;SDS011;7928;43.614;1.456;2022-07-22T14:41:42;8.02;;;5.65;;
15655;SDS011;7928;43.614;1.456;2022-07-22T14:44:11;6.15;;;4.88;;
15655;SDS011;7928;43.614;1.456;2022-07-22T14:46:38;7.80;;;5.57;;
15655;SDS011;7928;43.614;1.456;2022-07-22T14:49:05;9.95;;;5.85;;
15655;SDS011;7928;43.614;1.456;2022-07-22T14:51:32;8.57;;;5.22;;
15655;SDS011;7928;43.614;1.456;2022-07-22T14:54:01;8.40;;;4.82;;
15655;SDS011;7928;43.614;1.456;2022-07-22T14:56:28;5.50;;;5.00;;
15655;SDS011;7928;43.614;1.456;2022-07-22T14:58:55;7.53;;;4.90;;
15655;SDS011;7928;43.614;1.456;2022-07-22T15:01:22;7.13;;;5.03;;
15655;SDS011;7928;43.614;1.456;2022-07-22T15:03:49;6.93;;;5.03;;
15655;SDS011;7928;43.614;1.456;2022-07-22T15:06:16;9.52;;;4.85;;